Time;durP1;ratioP1;P1;durP2;ratioP2;P2;SDS_P1;SDS_P2;PMS_P1;PMS_P2;Temp;Humidity;BMP_temperature;BMP_pressure;BME280_temperature;BME280_humidity;BME280_pressure;Samples;Min_cycle;Max_cycle;Signal;HPM_P1;HPM_P2
2023/07/12 00:00:53;;;;;;;9.98;4.65;;;;;;;;;;6089536;23;20082;-56
2023/07/12 00:03:28;;;;;;;8.00;5.20;;;;;;;;;;6087966;23;20376;-57
2023/07/12 00:05:55;;;;;;;12.13;5.18;;;;;;;;;;6065366;23;20477;-56
2023/07/12 00:08:31;;;;;;;11.55;5.50;;;;;;;;;;6059673;23;20034;-53
2023/07/12 00:10:59;;;;;;;9.35;6.05;;;;;;;;;;6059326;23;20033;-59
2023/07/12 00:13:26;;;;;;;11.88;5.32;;;;;;;;;;6059082;23;20516;-55
2023/07/12 00:16:07;;;;;;;12.55;5.20;;;;;;;;;;6058748;23;20015;-58
2023/07/12 00:18:34;;;;;;;10.23;5.97;;;;;;;;;;6059112;23;20274;-59
2023/07/12 00:21:11;;;;;;;13.23;5.65;;;;;;;;;;6062050;23;20098;-59
2023/07/12 00:23:39;;;;;;;10.80;4.80;;;;;;;;;;6058450;23;20029;-59
2023/07/12 00:26:16;;;;;;;10.32;5.30;;;;;;;;;;6059391;23;20026;-59
2023/07/12 00:28:50;;;;;;;9.32;5.18;;;;;;;;;;6058952;23;20027;-61
2023/07/12 00:31:17;;;;;;;16.55;5.10;;;;;;;;;;6060195;23;20030;-60
2023/07/12 00:33:44;;;;;;;14.27;5.60;;;;;;;;;;6057784;23;20106;-60
2023/07/12 00:36:22;;;;;;;8.07;4.63;;;;;;;;;;6059017;23;20347;-60
2023/07/12 00:38:49;;;;;;;11.30;4.65;;;;;;;;;;6059888;23;20258;-61
2023/07/12 00:41:31;;;;;;;14.27;5.20;;;;;;;;;;6060410;23;20027;-61
2023/07/12 00:44:02;;;;;;;11.27;4.57;;;;;;;;;;6060122;23;20082;-60
2023/07/12 00:46:39;;;;;;;13.65;5.15;;;;;;;;;;6060024;23;20030;-59
2023/07/12 00:49:09;;;;;;;15.65;4.97;;;;;;;;;;6058637;23;20389;-58
2023/07/12 00:51:52;;;;;;;14.55;4.65;;;;;;;;;;6060765;23;20034;-59
2023/07/12 00:54:21;;;;;;;10.13;4.82;;;;;;;;;;6058366;23;20485;-69
2023/07/12 00:56:55;;;;;;;10.13;4.40;;;;;;;;;;6059457;23;20027;-61
2023/07/12 00:59:29;;;;;;;12.82;4.20;;;;;;;;;;6060351;23;20078;-57
2023/07/12 01:01:59;;;;;;;10.85;4.85;;;;;;;;;;6057357;23;20023;-54
2023/07/12 01:04:36;;;;;;;9.18;4.07;;;;;;;;;;6058361;23;20034;-56
2023/07/12 01:07:04;;;;;;;8.95;3.85;;;;;;;;;;6060308;23;20030;-55
2023/07/12 01:09:32;;;;;;;11.55;4.05;;;;;;;;;;6058986;23;20416;-57
2023/07/12 01:12:06;;;;;;;8.50;3.90;;;;;;;;;;6060384;23;20491;-57
2023/07/12 01:14:33;;;;;;;7.13;3.90;;;;;;;;;;6056451;23;20494;-61
2023/07/12 01:17:08;;;;;;;6.85;3.70;;;;;;;;;;6060928;23;20535;-61
2023/07/12 01:19:37;;;;;;;8.88;4.07;;;;;;;;;;6057933;23;20441;-61
2023/07/12 01:22:05;;;;;;;9.35;3.60;;;;;;;;;;6061509;23;20086;-61
2023/07/12 01:24:52;;;;;;;8.90;4.20;;;;;;;;;;6059013;23;20476;-67
2023/07/12 01:27:21;;;;;;;8.38;3.60;;;;;;;;;;6060757;23;20544;-69
2023/07/12 01:29:55;;;;;;;11.05;3.83;;;;;;;;;;6057603;23;20481;-68
2023/07/12 01:32:22;;;;;;;11.10;3.90;;;;;;;;;;6058969;23;20089;-70
2023/07/12 01:34:49;;;;;;;10.45;3.72;;;;;;;;;;6060208;23;20046;-69
2023/07/12 01:37:23;;;;;;;6.90;3.45;;;;;;;;;;6060557;23;20031;-69
2023/07/12 01:39:50;;;;;;;12.82;3.55;;;;;;;;;;6059068;23;20074;-69
2023/07/12 01:42:24;;;;;;;8.57;3.53;;;;;;;;;;6062277;23;20090;-59
2023/07/12 01:44:51;;;;;;;11.65;3.72;;;;;;;;;;6057009;23;20035;-59
2023/07/12 01:47:18;;;;;;;6.55;2.90;;;;;;;;;;6057977;23;20047;-59
2023/07/12 01:49:52;;;;;;;14.25;3.35;;;;;;;;;;6060132;23;20027;-59
2023/07/12 01:52:19;;;;;;;11.75;3.60;;;;;;;;;;6060403;23;20259;-65
2023/07/12 01:54:53;;;;;;;7.60;3.08;;;;;;;;;;6054227;23;20074;-53
2023/07/12 01:57:20;;;;;;;15.43;3.13;;;;;;;;;;6057591;23;20385;-54
2023/07/12 01:59:47;;;;;;;11.38;3.42;;;;;;;;;;6059579;23;20026;-54
2023/07/12 02:02:21;;;;;;;7.45;2.72;;;;;;;;;;6060166;23;20079;-55
2023/07/12 02:04:48;;;;;;;11.10;2.90;;;;;;;;;;6057452;23;20088;-53
2023/07/12 02:07:22;;;;;;;7.13;2.83;;;;;;;;;;6057843;23;20030;-55
2023/07/12 02:10:13;;;;;;;7.32;2.90;;;;;;;;;;6059927;23;20532;-59
2023/07/12 02:12:47;;;;;;;6.45;3.00;;;;;;;;;;6059490;23;20101;-60
2023/07/12 02:15:27;;;;;;;11.85;3.40;;;;;;;;;;6058091;23;20030;-59
2023/07/12 02:18:01;;;;;;;10.68;3.17;;;;;;;;;;6059797;23;20400;-59
2023/07/12 02:20:35;;;;;;;6.07;2.85;;;;;;;;;;6059588;23;20031;-60
2023/07/12 02:23:02;;;;;;;9.95;2.90;;;;;;;;;;6059083;23;20461;-64
2023/07/12 02:25:29;;;;;;;9.52;2.95;;;;;;;;;;6057843;23;20031;-65
2023/07/12 02:28:03;;;;;;;6.50;2.55;;;;;;;;;;6055718;23;20027;-64
2023/07/12 02:30:30;;;;;;;11.00;2.70;;;;;;;;;;6056225;23;20422;-64
2023/07/12 02:32:57;;;;;;;9.98;3.38;;;;;;;;;;6059129;23;20480;-64
2023/07/12 02:35:31;;;;;;;11.52;3.47;;;;;;;;;;6061996;23;20102;-64
2023/07/12 02:37:58;;;;;;;;;;;;;;;;;;6061276;23;20023;-69
2023/07/12 02:40:26;;;;;;;7.20;3.35;;;;;;;;;;6059078;23;20459;-70
2023/07/12 02:43:00;;;;;;;11.40;2.83;;;;;;;;;;6062539;23;20082;-69
2023/07/12 02:45:27;;;;;;;;;;;;;;;;;;6060321;23;20030;-69
2023/07/12 02:48:01;;;;;;;7.03;2.95;;;;;;;;;;6061729;23;19996;-59
2023/07/12 02:50:28;;;;;;;8.50;3.10;;;;;;;;;;6059888;23;20415;-60
2023/07/12 02:53:13;;;;;;;6.20;2.85;;;;;;;;;;6061213;23;20041;-62
2023/07/12 02:55:40;;;;;;;6.75;2.60;;;;;;;;;;6057643;23;20456;-63
2023/07/12 02:58:15;;;;;;;10.20;3.40;;;;;;;;;;6061237;23;20030;-63
2023/07/12 03:00:42;;;;;;;8.07;3.20;;;;;;;;;;6060704;23;20027;-63
2023/07/12 03:03:09;;;;;;;6.57;3.05;;;;;;;;;;6060218;23;20023;-63
2023/07/12 03:05:43;;;;;;;7.72;3.20;;;;;;;;;;6060146;23;20244;-63
2023/07/12 03:08:10;;;;;;;14.05;3.20;;;;;;;;;;6061207;23;20527;-58
2023/07/12 03:10:44;;;;;;;10.05;3.63;;;;;;;;;;6060549;23;20027;-57
2023/07/12 03:13:11;;;;;;;7.00;2.85;;;;;;;;;;6061049;23;20484;-58
2023/07/12 03:15:38;;;;;;;9.23;3.42;;;;;;;;;;6059673;23;20019;-57
2023/07/12 03:18:12;;;;;;;8.52;3.15;;;;;;;;;;6060403;23;20019;-57
2023/07/12 03:20:39;;;;;;;6.68;2.78;;;;;;;;;;6060573;23;20026;-57
2023/07/12 03:23:20;;;;;;;11.68;3.58;;;;;;;;;;6060496;23;20082;-58
2023/07/12 03:25:47;;;;;;;9.98;2.50;;;;;;;;;;6061399;23;20027;-58
2023/07/12 03:28:21;;;;;;;9.82;2.80;;;;;;;;;;6061305;23;20031;-58
2023/07/12 03:30:58;;;;;;;7.25;3.13;;;;;;;;;;6059176;23;20408;-58
2023/07/12 03:33:32;;;;;;;7.80;2.80;;;;;;;;;;6060030;23;20033;-58
2023/07/12 03:36:00;;;;;;;6.38;2.78;;;;;;;;;;6061783;23;20023;-58
2023/07/12 03:38:28;;;;;;;;;;;;;;;;;;6062719;23;20350;-58
2023/07/12 03:41:03;;;;;;;8.57;2.80;;;;;;;;;;6060171;23;19969;-58
2023/07/12 03:43:32;;;;;;;6.43;2.95;;;;;;;;;;6059977;23;20023;-58
2023/07/12 03:46:06;;;;;;;7.65;2.65;;;;;;;;;;6060885;23;20086;-68
2023/07/12 03:48:33;;;;;;;8.85;2.88;;;;;;;;;;6061209;23;20027;-50
2023/07/12 03:51:01;;;;;;;7.10;2.70;;;;;;;;;;6060264;23;20062;-54
2023/07/12 03:53:36;;;;;;;6.55;2.85;;;;;;;;;;6060755;23;20030;-50
2023/07/12 03:56:03;;;;;;;8.35;2.55;;;;;;;;;;6061569;23;20027;-51
2023/07/12 03:58:31;;;;;;;7.10;2.83;;;;;;;;;;6060012;23;20030;-53
2023/07/12 04:01:06;;;;;;;5.72;2.72;;;;;;;;;;6059518;23;20086;-54
2023/07/12 04:03:33;;;;;;;6.50;2.50;;;;;;;;;;6061179;23;20586;-58
2023/07/12 04:06:09;;;;;;;6.45;2.50;;;;;;;;;;6060433;23;20085;-58
2023/07/12 04:08:37;;;;;;;6.82;2.58;;;;;;;;;;6060231;23;20071;-58
2023/07/12 04:11:04;;;;;;;7.55;2.67;;;;;;;;;;6059423;23;20033;-57
2023/07/12 04:13:38;;;;;;;10.63;2.90;;;;;;;;;;6059183;23;20026;-57
2023/07/12 04:16:05;;;;;;;3.60;2.47;;;;;;;;;;6059523;23;20081;-67
2023/07/12 04:18:46;;;;;;;7.10;3.05;;;;;;;;;;6060407;23;20027;-58
2023/07/12 04:21:13;;;;;;;8.30;2.90;;;;;;;;;;6060831;23;20122;-58
2023/07/12 04:23:48;;;;;;;7.93;2.78;;;;;;;;;;6060903;23;20528;-58
2023/07/12 04:26:17;;;;;;;16.00;3.50;;;;;;;;;;6060335;23;20301;-57
2023/07/12 04:28:49;;;;;;;5.05;2.58;;;;;;;;;;6059335;23;20034;-58
2023/07/12 04:31:23;;;;;;;7.78;2.60;;;;;;;;;;6058420;23;20480;-58
2023/07/12 04:33:51;;;;;;;8.20;3.10;;;;;;;;;;6060086;23;20196;-55
2023/07/12 04:36:25;;;;;;;10.85;3.28;;;;;;;;;;6060361;23;20034;-51
2023/07/12 04:38:52;;;;;;;7.72;3.00;;;;;;;;;;6059719;23;20027;-53
2023/07/12 04:41:19;;;;;;;8.73;3.22;;;;;;;;;;6061002;23;20022;-53
2023/07/12 04:43:53;;;;;;;5.40;3.00;;;;;;;;;;6060216;23;20413;-68
2023/07/12 04:46:20;;;;;;;8.48;2.92;;;;;;;;;;6061481;23;20027;-58
2023/07/12 04:48:54;;;;;;;7.40;3.20;;;;;;;;;;6059069;23;20027;-58
2023/07/12 04:51:23;;;;;;;8.27;2.90;;;;;;;;;;6059891;23;20018;-58
2023/07/12 04:53:50;;;;;;;11.55;3.45;;;;;;;;;;6059377;23;20530;-58
2023/07/12 04:56:24;;;;;;;9.27;3.67;;;;;;;;;;6058809;23;20094;-59
2023/07/12 04:58:52;;;;;;;22.15;4.22;;;;;;;;;;6057415;23;20078;-59
2023/07/12 05:01:26;;;;;;;10.27;4.28;;;;;;;;;;6060391;23;20023;-58
2023/07/12 05:03:53;;;;;;;;;;;;;;;;;;6059028;23;20507;-58
2023/07/12 05:06:21;;;;;;;12.10;4.18;;;;;;;;;;6056861;23;20340;-58
2023/07/12 05:08:55;;;;;;;18.85;5.10;;;;;;;;;;6058909;23;20517;-57
2023/07/12 05:11:22;;;;;;;18.77;6.22;;;;;;;;;;6059411;23;20034;-60
2023/07/12 05:13:56;;;;;;;8.52;4.10;;;;;;;;;;6059448;23;20026;-63
2023/07/12 05:16:31;;;;;;;11.90;4.90;;;;;;;;;;6060310;23;20472;-64
2023/07/12 05:19:05;;;;;;;9.48;4.57;;;;;;;;;;6060631;23;20022;-64
2023/07/12 05:21:39;;;;;;;12.20;4.32;;;;;;;;;;6060173;23;20536;-63
2023/07/12 05:24:26;;;;;;;10.52;4.43;;;;;;;;;;6062036;23;20059;-63
2023/07/12 05:27:20;;;;;;;17.77;4.85;;;;;;;;;;6061586;23;20480;-62
2023/07/12 05:30:07;;;;;;;12.73;4.03;;;;;;;;;;6061360;23;20368;-64
2023/07/12 05:33:01;;;;;;;11.38;4.40;;;;;;;;;;6061065;23;20027;-64
2023/07/12 05:35:48;;;;;;;9.65;4.88;;;;;;;;;;6059911;23;20086;-64
2023/07/12 05:38:42;;;;;;;7.38;4.47;;;;;;;;;;6061305;23;20106;-63
2023/07/12 05:41:29;;;;;;;14.90;4.57;;;;;;;;;;6061234;23;20421;-59
2023/07/12 05:44:23;;;;;;;11.88;4.15;;;;;;;;;;6061484;23;20079;-59
2023/07/12 05:47:17;;;;;;;10.35;4.28;;;;;;;;;;6059145;23;20030;-59
2023/07/12 05:50:12;;;;;;;8.93;4.30;;;;;;;;;;6056942;23;20023;-59
2023/07/12 05:52:59;;;;;;;11.40;4.40;;;;;;;;;;6060448;23;20264;-59
2023/07/12 05:55:57;;;;;;;16.75;4.90;;;;;;;;;;6058518;23;20414;-59
2023/07/12 05:58:50;;;;;;;8.63;4.47;;;;;;;;;;6055923;23;20023;-59
2023/07/12 06:01:44;;;;;;;12.52;4.85;;;;;;;;;;6060472;23;20031;-60
2023/07/12 06:04:38;;;;;;;15.10;5.70;;;;;;;;;;6059588;23;20027;-59
2023/07/12 06:07:25;;;;;;;11.98;5.43;;;;;;;;;;6059541;23;20026;-59
2023/07/12 06:10:19;;;;;;;9.90;5.05;;;;;;;;;;6063660;23;20026;-59
2023/07/12 06:13:09;;;;;;;15.73;5.47;;;;;;;;;;6061970;23;20027;-59
2023/07/12 06:16:07;;;;;;;14.52;5.80;;;;;;;;;;6062929;23;20023;-60
2023/07/12 06:18:54;;;;;;;14.30;6.50;;;;;;;;;;6062494;23;20041;-59
2023/07/12 06:21:48;;;;;;;12.43;6.07;;;;;;;;;;6054615;23;20082;-60
2023/07/12 06:24:35;;;;;;;15.45;5.75;;;;;;;;;;6061506;23;20560;-60
2023/07/12 06:27:29;;;;;;;13.98;6.97;;;;;;;;;;6062421;23;20027;-58
2023/07/12 06:30:17;;;;;;;11.05;5.72;;;;;;;;;;6059974;23;20477;-58
2023/07/12 06:33:11;;;;;;;13.82;6.30;;;;;;;;;;6062345;23;20098;-58
2023/07/12 06:35:58;;;;;;;10.45;6.07;;;;;;;;;;6062318;23;20023;-61
2023/07/12 06:38:52;;;;;;;9.38;5.43;;;;;;;;;;6062175;23;20078;-64
2023/07/12 06:41:39;;;;;;;24.45;7.45;;;;;;;;;;6060998;23;20031;-64
2023/07/12 06:44:33;;;;;;;12.10;6.30;;;;;;;;;;6062625;23;20082;-65
2023/07/12 06:47:20;;;;;;;12.07;5.53;;;;;;;;;;6059801;23;20027;-64
2023/07/12 06:50:14;;;;;;;11.80;5.72;;;;;;;;;;6058910;23;20066;-63
2023/07/12 06:53:01;;;;;;;11.68;5.82;;;;;;;;;;6058922;23;20055;-64
2023/07/12 06:55:55;;;;;;;13.23;6.55;;;;;;;;;;6061206;23;20027;-58
2023/07/12 06:58:42;;;;;;;10.73;6.25;;;;;;;;;;6061379;23;20026;-58
2023/07/12 07:01:38;;;;;;;11.98;5.95;;;;;;;;;;6060397;23;20027;-58
2023/07/12 07:04:25;;;;;;;13.05;6.28;;;;;;;;;;6060114;23;20019;-58
2023/07/12 07:07:19;;;;;;;15.00;6.70;;;;;;;;;;6060909;23;20240;-56
2023/07/12 07:10:13;;;;;;;12.60;6.13;;;;;;;;;;6062095;23;20085;-56
2023/07/12 07:13:00;;;;;;;9.18;5.70;;;;;;;;;;6060319;23;20047;-57
2023/07/12 07:16:01;;;;;;;10.98;6.55;;;;;;;;;;6058530;23;20362;-57
2023/07/12 07:18:55;;;;;;;12.18;6.18;;;;;;;;;;6059906;23;20106;-57
2023/07/12 07:21:50;;;;;;;17.00;6.45;;;;;;;;;;6060638;23;20425;-56
2023/07/12 07:24:36;;;;;;;9.20;5.95;;;;;;;;;;6061161;23;20127;-59
2023/07/12 07:27:44;;;;;;;12.32;6.47;;;;;;;;;;6060894;23;20027;-59
2023/07/12 07:30:31;;;;;;;12.75;6.35;;;;;;;;;;6059527;23;20026;-59
2023/07/12 07:33:25;;;;;;;16.92;6.50;;;;;;;;;;6061319;23;20027;-57
2023/07/12 07:36:14;;;;;;;11.27;6.22;;;;;;;;;;6060341;23;20418;-56
2023/07/12 07:39:07;;;;;;;11.63;6.63;;;;;;;;;;6060573;23;20023;-58
2023/07/12 07:41:55;;;;;;;13.18;5.90;;;;;;;;;;6060868;23;20025;-57
2023/07/12 07:44:48;;;;;;;15.50;5.80;;;;;;;;;;6061031;23;20074;-56
2023/07/12 07:47:36;;;;;;;9.88;5.70;;;;;;;;;;6059659;23;20090;-57
2023/07/12 07:50:30;;;;;;;10.45;5.53;;;;;;;;;;6061244;23;20082;-55
2023/07/12 07:53:17;;;;;;;12.85;5.65;;;;;;;;;;6060805;23;20410;-64
2023/07/12 07:56:11;;;;;;;10.40;5.72;;;;;;;;;;6059145;23;20390;-63
2023/07/12 07:59:06;;;;;;;12.18;6.30;;;;;;;;;;6061391;23;20031;-64
2023/07/12 08:01:52;;;;;;;9.52;6.63;;;;;;;;;;6059300;23;20026;-57
2023/07/12 08:04:46;;;;;;;9.75;6.22;;;;;;;;;;6059724;23;20023;-58
2023/07/12 08:07:38;;;;;;;11.55;5.88;;;;;;;;;;6059885;23;20524;-57
2023/07/12 08:10:32;;;;;;;8.15;5.72;;;;;;;;;;6060430;23;20027;-58
2023/07/12 08:13:18;;;;;;;11.48;6.30;;;;;;;;;;6060941;23;20090;-58
2023/07/12 08:16:13;;;;;;;9.18;5.47;;;;;;;;;;6060815;23;20019;-58
2023/07/12 08:19:06;;;;;;;11.52;5.80;;;;;;;;;;6058783;23;20054;-58
2023/07/12 08:22:00;;;;;;;10.75;5.50;;;;;;;;;;6060922;23;20027;-58
2023/07/12 08:24:47;;;;;;;8.68;5.22;;;;;;;;;;6059418;23;20086;-57
2023/07/12 08:27:41;;;;;;;14.25;5.13;;;;;;;;;;6060276;23;20394;-58
2023/07/12 08:30:29;;;;;;;8.57;5.43;;;;;;;;;;6060813;23;20027;-64
2023/07/12 08:33:22;;;;;;;8.70;5.82;;;;;;;;;;6061037;23;20046;-65
2023/07/12 08:36:09;;;;;;;12.73;5.90;;;;;;;;;;6059529;23;20086;-64
2023/07/12 08:39:04;;;;;;;9.88;5.75;;;;;;;;;;6061039;23;20023;-65
2023/07/12 08:41:53;;;;;;;8.27;4.82;;;;;;;;;;6060177;23;20027;-65
2023/07/12 08:44:47;;;;;;;13.93;6.20;;;;;;;;;;6060315;23;20085;-65
2023/07/12 08:47:38;;;;;;;9.32;5.82;;;;;;;;;;6061304;23;20050;-64
2023/07/12 08:50:38;;;;;;;9.98;5.93;;;;;;;;;;6058811;23;20018;-58
2023/07/12 08:53:26;;;;;;;7.15;5.15;;;;;;;;;;6060832;23;20027;-58
2023/07/12 08:56:20;;;;;;;7.80;5.25;;;;;;;;;;6060175;23;20480;-58
2023/07/12 08:59:11;;;;;;;8.35;5.05;;;;;;;;;;6055855;23;20023;-58
2023/07/12 09:02:12;;;;;;;7.35;5.03;;;;;;;;;;6060428;23;20342;-58
2023/07/12 09:05:00;;;;;;;9.30;5.40;;;;;;;;;;6059079;23;20026;-58
2023/07/12 09:07:56;;;;;;;7.65;5.20;;;;;;;;;;6060179;23;20023;-59
2023/07/12 09:10:50;;;;;;;6.82;4.93;;;;;;;;;;6058867;23;20436;-59
2023/07/12 09:13:46;;;;;;;9.90;5.43;;;;;;;;;;6060541;23;20090;-59
2023/07/12 09:16:39;;;;;;;10.02;4.90;;;;;;;;;;6058733;23;20026;-65
2023/07/12 09:19:37;;;;;;;5.30;4.70;;;;;;;;;;6060211;23;20102;-65
2023/07/12 09:22:24;;;;;;;6.50;4.60;;;;;;;;;;6059787;23;20330;-65
2023/07/12 09:25:23;;;;;;;6.28;4.90;;;;;;;;;;6059518;23;20059;-64
2023/07/12 09:28:11;;;;;;;11.30;5.15;;;;;;;;;;6059949;23;20528;-65
2023/07/12 09:31:16;;;;;;;6.90;5.05;;;;;;;;;;6059177;23;20023;-58
2023/07/12 09:34:36;;;;;;;6.78;5.20;;;;;;;;;;6061332;23;20023;-58
2023/07/12 09:37:35;;;;;;;6.43;5.13;;;;;;;;;;6059920;23;20065;-57
2023/07/12 09:40:38;;;;;;;8.30;5.18;;;;;;;;;;6060001;23;20027;-58
2023/07/12 09:43:27;;;;;;;7.13;5.35;;;;;;;;;;6062139;23;20026;-58
2023/07/12 09:46:28;;;;;;;9.27;6.13;;;;;;;;;;6063619;23;20031;-58
2023/07/12 09:49:26;;;;;;;10.27;6.97;;;;;;;;;;6061618;23;20034;-58
2023/07/12 09:52:31;;;;;;;10.15;6.07;;;;;;;;;;6062656;23;20031;-58
2023/07/12 09:55:29;;;;;;;6.97;5.38;;;;;;;;;;6061233;23;20030;-58
2023/07/12 09:58:28;;;;;;;8.00;5.53;;;;;;;;;;6061469;23;20417;-58
2023/07/12 10:01:24;;;;;;;8.98;5.10;;;;;;;;;;6061940;23;20026;-59
2023/07/12 10:04:21;;;;;;;8.43;5.40;;;;;;;;;;6062240;23;20026;-59
2023/07/12 10:07:33;;;;;;;8.27;5.20;;;;;;;;;;6061701;23;20448;-59
2023/07/12 10:10:28;;;;;;;5.35;4.57;;;;;;;;;;6060827;23;20545;-59
2023/07/12 10:13:18;;;;;;;7.63;5.85;;;;;;;;;;6063194;23;20477;-59
2023/07/12 10:16:31;;;;;;;9.35;5.65;;;;;;;;;;6061098;23;20027;-59
2023/07/12 10:19:31;;;;;;;6.85;5.00;;;;;;;;;;6062411;23;20029;-60
2023/07/12 10:22:29;;;;;;;6.78;5.50;;;;;;;;;;6060712;23;20098;-60
2023/07/12 10:25:28;;;;;;;7.95;4.80;;;;;;;;;;6061596;23;20406;-67
2023/07/12 10:28:38;;;;;;;6.32;5.00;;;;;;;;;;6062814;23;20078;-58
2023/07/12 10:31:30;;;;;;;6.57;5.47;;;;;;;;;;6060423;23;20059;-59
2023/07/12 10:34:39;;;;;;;8.27;4.93;;;;;;;;;;6061399;23;20027;-59
2023/07/12 10:37:30;;;;;;;5.60;4.38;;;;;;;;;;6061750;23;20022;-58
2023/07/12 10:40:25;;;;;;;5.72;5.15;;;;;;;;;;6060848;23;20030;-58
2023/07/12 10:43:19;;;;;;;6.68;5.32;;;;;;;;;;6062249;23;20026;-58
2023/07/12 10:46:16;;;;;;;9.23;5.10;;;;;;;;;;6060828;23;20532;-58
2023/07/12 10:49:12;;;;;;;10.20;4.78;;;;;;;;;;6061442;23;20536;-58
2023/07/12 10:52:19;;;;;;;7.75;5.20;;;;;;;;;;6060147;23;20026;-58
2023/07/12 10:55:18;;;;;;;6.75;5.05;;;;;;;;;;6061858;23;20540;-60
2023/07/12 10:58:21;;;;;;;8.10;4.68;;;;;;;;;;6061873;23;20544;-60
2023/07/12 11:01:28;;;;;;;7.28;4.95;;;;;;;;;;6061389;23;20035;-60
2023/07/12 11:04:32;;;;;;;5.95;4.97;;;;;;;;;;6061323;23;20019;-60
2023/07/12 11:07:19;;;;;;;8.10;5.03;;;;;;;;;;6061268;23;20055;-60
2023/07/12 11:10:17;;;;;;;8.57;5.45;;;;;;;;;;6061939;23;20473;-58
2023/07/12 11:13:10;;;;;;;6.18;5.22;;;;;;;;;;6061817;23;20339;-58
2023/07/12 11:16:21;;;;;;;10.13;5.03;;;;;;;;;;6061004;23;20027;-58
2023/07/12 11:19:33;;;;;;;8.57;5.68;;;;;;;;;;6061651;23;20130;-59
2023/07/12 11:22:46;;;;;;;7.20;5.07;;;;;;;;;;6060982;23;20095;-59
2023/07/12 11:25:45;;;;;;;10.20;4.70;;;;;;;;;;6061074;23;20031;-54
2023/07/12 11:28:40;;;;;;;11.07;6.00;;;;;;;;;;6061176;23;20031;-55
2023/07/12 11:31:32;;;;;;;5.72;4.55;;;;;;;;;;6061441;23;20023;-56
2023/07/12 11:34:25;;;;;;;5.53;4.70;;;;;;;;;;6061639;23;20027;-56
2023/07/12 11:37:25;;;;;;;8.50;5.00;;;;;;;;;;6060101;23;20026;-57
2023/07/12 11:40:20;;;;;;;12.75;7.07;;;;;;;;;;6061292;23;20023;-57
2023/07/12 11:43:23;;;;;;;32.72;8.40;;;;;;;;;;6061657;23;20034;-57
2023/07/12 11:46:15;;;;;;;23.55;7.22;;;;;;;;;;6061315;23;20413;-56
2023/07/12 11:49:14;;;;;;;10.55;6.47;;;;;;;;;;6061098;23;20054;-60
2023/07/12 11:52:12;;;;;;;9.50;4.78;;;;;;;;;;6060166;23;20357;-66
2023/07/12 11:55:13;;;;;;;6.38;5.28;;;;;;;;;;6061525;23;20019;-66
2023/07/12 11:58:00;;;;;;;6.25;4.20;;;;;;;;;;6061071;23;20078;-66
2023/07/12 12:00:56;;;;;;;4.88;4.38;;;;;;;;;;6060010;23;20085;-65
2023/07/12 12:03:43;;;;;;;;;;;;;;;;;;6060843;23;20480;-66
2023/07/12 12:06:43;;;;;;;8.60;4.72;;;;;;;;;;6059667;23;19976;-65
2023/07/12 12:09:32;;;;;;;7.95;4.18;;;;;;;;;;6060486;23;20424;-65
2023/07/12 12:12:29;;;;;;;4.88;3.80;;;;;;;;;;6055225;23;20023;-64
2023/07/12 12:15:23;;;;;;;7.18;3.28;;;;;;;;;;6060771;23;20089;-64
2023/07/12 12:18:23;;;;;;;3.30;3.00;;;;;;;;;;6060716;23;20030;-58
2023/07/12 12:21:17;;;;;;;3.97;3.17;;;;;;;;;;6059561;23;20026;-59
2023/07/12 12:24:18;;;;;;;3.20;2.90;;;;;;;;;;6061146;23;20026;-60
2023/07/12 12:27:11;;;;;;;4.47;2.58;;;;;;;;;;6060626;23;20030;-60
2023/07/12 12:30:16;;;;;;;3.53;3.10;;;;;;;;;;6061775;23;20338;-59
2023/07/12 12:33:04;;;;;;;;;;;;;;;;;;6061948;23;20027;-59
2023/07/12 12:35:59;;;;;;;3.63;2.85;;;;;;;;;;6060265;23;19921;-57
2023/07/12 12:38:55;;;;;;;4.13;2.78;;;;;;;;;;6060605;23;20476;-58
2023/07/12 12:41:50;;;;;;;3.83;2.83;;;;;;;;;;6059905;23;20156;-57
2023/07/12 12:44:37;;;;;;;2.55;2.25;;;;;;;;;;6060109;23;20468;-58
2023/07/12 12:47:33;;;;;;;4.93;2.50;;;;;;;;;;6055577;23;20031;-66
2023/07/12 12:50:21;;;;;;;3.30;3.00;;;;;;;;;;6058682;23;20045;-66
2023/07/12 12:53:18;;;;;;;2.60;2.40;;;;;;;;;;6059887;23;20109;-66
2023/07/12 12:56:19;;;;;;;6.55;2.40;;;;;;;;;;6059708;23;20338;-66
2023/07/12 12:59:17;;;;;;;3.80;2.83;;;;;;;;;;6071032;23;20460;-65
2023/07/12 13:02:13;;;;;;;8.40;3.15;;;;;;;;;;6058864;23;20086;-66
2023/07/12 13:05:10;;;;;;;4.82;2.70;;;;;;;;;;6057378;23;20031;-59
2023/07/12 13:08:04;;;;;;;2.90;2.55;;;;;;;;;;6054916;23;20022;-59
2023/07/12 13:11:04;;;;;;;247.05;15.70;;;;;;;;;;6067641;23;20027;-59
2023/07/12 13:13:51;;;;;;;5.57;2.88;;;;;;;;;;6059524;23;20034;-59
2023/07/12 13:16:55;;;;;;;8.93;4.00;;;;;;;;;;6058739;23;20058;-65
2023/07/12 13:19:52;;;;;;;7.35;3.05;;;;;;;;;;6059747;23;20027;-57
2023/07/12 13:22:47;;;;;;;8.82;3.08;;;;;;;;;;6055825;23;20038;-57
2023/07/12 13:25:36;;;;;;;4.72;3.30;;;;;;;;;;6057608;23;20027;-58
2023/07/12 13:28:29;;;;;;;18.35;5.88;;;;;;;;;;6057369;23;20026;-57
2023/07/12 13:31:18;;;;;;;11.93;4.10;;;;;;;;;;6058355;23;20030;-57
2023/07/12 13:34:11;;;;;;;9.40;4.28;;;;;;;;;;6058444;23;20521;-65
2023/07/12 13:37:01;;;;;;;11.75;4.22;;;;;;;;;;6059646;23;20030;-65
2023/07/12 13:39:56;;;;;;;7.63;5.18;;;;;;;;;;6058420;23;20050;-64
2023/07/12 13:42:47;;;;;;;14.50;4.30;;;;;;;;;;6056534;23;20019;-60
2023/07/12 13:45:44;;;;;;;8.88;5.80;;;;;;;;;;6057531;23;20031;-61
2023/07/12 13:48:32;;;;;;;19.75;7.30;;;;;;;;;;6059737;23;20431;-60
2023/07/12 13:51:25;;;;;;;4.55;4.05;;;;;;;;;;6055567;23;20269;-60
2023/07/12 13:54:12;;;;;;;9.57;6.03;;;;;;;;;;6059041;23;20031;-60
2023/07/12 13:57:16;;;;;;;4.78;4.13;;;;;;;;;;6058539;23;20071;-60
2023/07/12 14:00:06;;;;;;;4.78;3.95;;;;;;;;;;6058365;23;20085;-60
2023/07/12 14:03:24;;;;;;;15.32;5.88;;;;;;;;;;6057347;23;20105;-59
2023/07/12 14:06:13;;;;;;;9.80;4.53;;;;;;;;;;6057986;23;20054;-59
2023/07/12 14:09:22;;;;;;;7.75;4.53;;;;;;;;;;6056590;23;20019;-60
2023/07/12 14:12:13;;;;;;;4.47;3.63;;;;;;;;;;6057475;23;20103;-60
2023/07/12 14:15:06;;;;;;;4.82;4.15;;;;;;;;;;6057370;23;20427;-56
2023/07/12 14:18:00;;;;;;;6.40;3.53;;;;;;;;;;6056424;23;20026;-55
2023/07/12 14:20:53;;;;;;;7.43;3.50;;;;;;;;;;6056976;23;20558;-53
2023/07/12 14:23:40;;;;;;;4.97;3.47;;;;;;;;;;6057885;23;20435;-56
2023/07/12 14:26:34;;;;;;;7.88;3.75;;;;;;;;;;6057033;23;20355;-54
2023/07/12 14:29:21;;;;;;;8.60;3.90;;;;;;;;;;6058796;23;20491;-60
2023/07/12 14:32:24;;;;;;;5.30;3.42;;;;;;;;;;6069559;23;20034;-61
2023/07/12 14:35:16;;;;;;;8.57;4.20;;;;;;;;;;6060049;23;20033;-61
2023/07/12 14:38:11;;;;;;;5.65;4.15;;;;;;;;;;6060793;23;20027;-60
2023/07/12 14:40:58;;;;;;;5.32;3.83;;;;;;;;;;6059090;23;20027;-61
2023/07/12 14:43:53;;;;;;;5.35;4.07;;;;;;;;;;6059399;23;20041;-60
2023/07/12 14:46:40;;;;;;;5.90;4.90;;;;;;;;;;6058672;23;20027;-60
2023/07/12 14:49:34;;;;;;;8.20;3.95;;;;;;;;;;6059323;23;20030;-60
2023/07/12 14:52:23;;;;;;;12.13;4.38;;;;;;;;;;6057989;23;20031;-60
2023/07/12 14:55:18;;;;;;;12.55;4.15;;;;;;;;;;6058735;23;20029;-60
2023/07/12 14:58:13;;;;;;;9.75;4.10;;;;;;;;;;6059895;23;20374;-56
2023/07/12 15:00:59;;;;;;;4.72;3.13;;;;;;;;;;6059750;23;20090;-55
2023/07/12 15:03:54;;;;;;;5.55;3.60;;;;;;;;;;6059795;23;20113;-56
2023/07/12 15:06:41;;;;;;;7.13;3.97;;;;;;;;;;6058018;23;20027;-56
2023/07/12 15:09:35;;;;;;;7.43;3.58;;;;;;;;;;6058840;23;20027;-60
2023/07/12 15:12:37;;;;;;;4.85;3.70;;;;;;;;;;6057539;23;20035;-61
2023/07/12 15:15:32;;;;;;;5.43;3.67;;;;;;;;;;6059956;23;20443;-61
2023/07/12 15:18:27;;;;;;;5.05;3.45;;;;;;;;;;6031399;23;20034;-61
2023/07/12 15:21:26;;;;;;;5.63;3.63;;;;;;;;;;6029965;23;20033;-61
2023/07/12 15:24:13;;;;;;;7.00;3.60;;;;;;;;;;6030833;23;20407;-62
2023/07/12 15:27:12;;;;;;;6.57;3.55;;;;;;;;;;6031343;23;20423;-66
2023/07/12 15:30:03;;;;;;;6.13;3.38;;;;;;;;;;6029836;23;20027;-67
2023/07/12 15:32:57;;;;;;;6.05;4.00;;;;;;;;;;6030587;23;20518;-66
2023/07/12 15:35:44;;;;;;;7.28;3.50;;;;;;;;;;6031110;23;20051;-66
2023/07/12 15:38:59;;;;;;;5.30;4.07;;;;;;;;;;6029746;23;20082;-58
2023/07/12 15:41:53;;;;;;;19.30;4.28;;;;;;;;;;6027666;23;20522;-59
2023/07/12 15:44:47;;;;;;;5.43;3.47;;;;;;;;;;6031426;23;20034;-59
2023/07/12 15:47:35;;;;;;;9.13;3.90;;;;;;;;;;6030307;23;20483;-59
2023/07/12 15:50:28;;;;;;;4.05;3.40;;;;;;;;;;6029813;23;20047;-59
2023/07/12 15:53:16;;;;;;;15.25;3.80;;;;;;;;;;6029943;23;20027;-60
2023/07/12 15:56:16;;;;;;;13.38;3.25;;;;;;;;;;6030613;23;20019;-59
2023/07/12 15:59:04;;;;;;;18.90;4.18;;;;;;;;;;6032141;23;20028;-59
2023/07/12 16:01:57;;;;;;;13.73;3.70;;;;;;;;;;6027136;23;20537;-59
2023/07/12 16:04:47;;;;;;;12.63;3.65;;;;;;;;;;6028231;23;20023;-66
2023/07/12 16:07:38;;;;;;;11.98;3.33;;;;;;;;;;6025902;23;20083;-65
2023/07/12 16:10:25;;;;;;;8.20;3.45;;;;;;;;;;6023519;23;20082;-58
2023/07/12 16:13:21;;;;;;;14.63;3.08;;;;;;;;;;6029085;23;20034;-59
2023/07/12 16:16:25;;;;;;;4.85;2.90;;;;;;;;;;6036292;23;20037;-59
2023/07/12 16:19:25;;;;;;;9.18;3.00;;;;;;;;;;6057264;23;20030;-59
2023/07/12 16:22:21;;;;;;;11.00;2.75;;;;;;;;;;6058694;23;20078;-60
2023/07/12 16:25:17;;;;;;;11.23;2.85;;;;;;;;;;6060984;23;20033;-69
2023/07/12 16:28:04;;;;;;;15.90;3.05;;;;;;;;;;6058477;23;20030;-68
2023/07/12 16:30:58;;;;;;;7.68;3.22;;;;;;;;;;6059097;23;20019;-69
2023/07/12 16:33:45;;;;;;;10.77;2.63;;;;;;;;;;6057466;23;20018;-58